Relevés horaires Bierset (Belgique)


Relevés horaires à Bierset - Vendredi 16 Juin 2023
Heure UTC1 Température [°C] Vent [km/h] Hum. [%] Pres.4 [hPa] Visi. [Km] Nébu. [octa] Préc.5 [mm] Cond.
2m. Res. Ros. Dir.2 Vit. Moy. Raf.3
23:00 19.1 19.1 6.1 ENE 5.6 7.4 11.1 43 1017.5(0.5/3h) 30 0/8 -- --
22:00 17.9 17.9 7.0 NNE 5.6 5.6 5.6 49 1017.5(0.5/3h) 30 0/8 -- --
21:00 20.4 20.4 6.6 N 3.7 5.6 7.4 41 1017.1(0.2/3h) 30 0/8 -- --
20:00 22.4 22.4 5.9 ONO 1.9 1.9 3.7 34 1016.8(-0.1/3h) 30 1/8 -- --
19:00 23.6 23.6 6.0 NNO 1.9 5.6 7.4 32 1016.5(-0.6/3h) 30 1/8 -- --
18:00 24.7 24.7 5.2 ONO 5.6 7.4 14.8 28 1016.6(-0.7/3h) 30 1/8 0/12h
--
17:00 25.3 25.3 6.0 ONO 3.7 5.6 7.4 29 1016.7(-1.0/3h) 30 1/8 -- --
16:00 25.0 25.0 5.7 ONO 5.6 5.6 11.1 29 1017(-1.0/3h) 30 1/8 -- --
15:00 25.4 25.4 5.8 NNO 1.9 7.4 14.8 28 1017.3(-1.1/3h) 30 1/8 -- --
14:00 25.2 25.2 4.9 NNO 5.6 7.4 11.1 27 1017.7(-0.9/3h) 30 1/8 -- --
13:00 24.8 24.8 5.1 NNO 5.6 7.4 14.8 28 1018.1(-0.8/3h) 30 1/8 -- --
12:00 23.5 23.5 3.9 N 5.6 7.4 13.0 28 1018.5(-0.4/3h) 30 1/8 0/6h
--
11:00 24.5 24.5 6.4 NNO 3.7 5.6 13.0 31 1018.6(-0.3/3h) 30 1/8 -- --
10:00 23.5 23.5 7.1 NNE 5.6 5.6 9.3 35 1018.9(0.0/3h) 30 1/8 -- --
09:00 22.9 22.9 8.9 NNO 1.9 3.7 13.0 41 1018.9(0.4/3h) 30 1/8 -- --
08:00 21.8 21.8 9.5 NNO 1.9 1.9 13.0 45 1019.1(0.6/3h) 30 1/8 -- --
07:00 18.6 18.6 10.2 SE 1.9 3.7 3.7 58 1019.2(0.8/3h) 30 1/8 -- --
06:00 16.8 16.8 10.0 SE 1.9 5.6 13.0 64 1018.9(0.6/3h) 30 1/8 0/12h
--
05:00 14.6 14.6 8.9 N 1.9 1.9 1.9 69 1019(0.3/3h) 30 0/8 -- --
04:00 14.1 14.1 8.4 NNO 1.9 3.7 11.1 69 1018.8(-0.2/3h) 30 2/8 -- --
03:00 15.9 15.9 7.6 ENE 1.9 5.6 13.0 58 1018.4(-0.6/3h) 30 2/8 -- --
02:00 16.3 16.3 7.0 NNO 0.0 1.9 1.9 54 1018.5(-0.7/3h) 30 2/8 -- --
01:00 16.1 16.1 7.5 O 1.9 5.6 13.0 57 1018.9(-0.3/3h) 30 2/8 -- --
00:00 15.7 15.7 7.6 NNE 5.6 5.6 9.3 59 1019(0.1/3h) 30 2/8 0/6h
0/24h
--

1 Coordinated Universal Time. Actuellement il est 23:00 locale et 21:00 UTC.

2 Le vent souffle depuis la direction indiquée vers la direction oposée.

3 Les rafales max. sont disponible 40 min après l'heure du relevé.

4 Pour les stations d'altitude (plus de 600m) le géopotentiel du niveau le plus proche de la pression obligatoire est indiqué.

5 Les stations disposant d'un diffuseur peuvent indiquer "trace". Cela signifie que des précipitations ont touchés le sol mais que la quantité est inférieure à 0.1 mm.

Récapitulatif de la journée
Température [°C] Vent [km/h] Ensoleillement4 [h] Precipitations totale5 [mm] Pression [Hpa]
Min1 Max.2 Moy.3 Max. Min Max.
13.8 26.2 5.2 14.8 0 h 0 min 0 1016.5 1019.2

1 Température minimale relevée entre 18:00 UTC la veille et 18:00 UTC le jour donné.

2 Température maximale relevée entre 06:00 UTC le jour donné et 06:00 UTC le lendemain.

3 Vent moyen de la journée basé sur les relevés horaires.

4 Ensoleillement en heures relevé entre 06:00 UTC la veille et 06:00 UTC le jour donné.

5 Précipitations totales tombées entre 06:00 UTC la jour donné et 06:00 UTC le lendemain.

Graphiques horaires